createdAt,value
2018-03-07T00:01:10.646Z,3.10
2018-03-07T00:03:37.500Z,3.20
2018-03-07T00:06:04.344Z,3.20
2018-03-07T00:08:31.186Z,3.20
2018-03-07T00:10:58.047Z,3.20
2018-03-07T00:13:25.635Z,3.20
2018-03-07T00:15:52.518Z,3.20
2018-03-07T00:18:20.166Z,3.10
2018-03-07T00:20:46.986Z,3.00
2018-03-07T00:23:13.815Z,3.00
2018-03-07T00:25:41.411Z,2.90
2018-03-07T00:28:08.239Z,2.90
2018-03-07T00:30:35.820Z,2.80
2018-03-07T00:33:02.718Z,2.80
2018-03-07T00:35:29.550Z,2.80
2018-03-07T00:37:57.127Z,2.70
2018-03-07T00:40:24.008Z,2.70
2018-03-07T00:42:50.859Z,2.60
2018-03-07T00:45:17.684Z,2.60
2018-03-07T00:47:44.522Z,2.70
2018-03-07T00:50:11.391Z,2.70
2018-03-07T00:52:38.266Z,2.70
2018-03-07T00:55:05.076Z,2.60
2018-03-07T00:57:31.907Z,2.70
2018-03-07T00:59:58.758Z,2.70
2018-03-07T01:02:25.602Z,2.70
2018-03-07T01:04:52.478Z,2.70
2018-03-07T01:07:19.338Z,2.70
2018-03-07T01:09:46.186Z,2.80
2018-03-07T01:12:13.055Z,2.80
2018-03-07T01:14:39.867Z,2.80
2018-03-07T01:17:06.712Z,2.90
2018-03-07T01:19:33.586Z,2.80
2018-03-07T01:22:00.447Z,2.60
2018-03-07T01:24:27.296Z,2.50
2018-03-07T01:26:54.110Z,2.70
2018-03-07T01:29:20.998Z,2.70
2018-03-07T01:31:48.626Z,2.80
2018-03-07T01:34:15.435Z,2.70
2018-03-07T01:36:42.287Z,2.90
2018-03-07T01:39:09.139Z,2.90
2018-03-07T01:41:35.967Z,2.80
2018-03-07T01:44:03.566Z,2.80
2018-03-07T01:46:31.147Z,2.70
2018-03-07T01:48:57.995Z,2.70
2018-03-07T01:51:37.076Z,2.70
2018-03-07T01:54:03.914Z,2.60
2018-03-07T01:56:30.754Z,2.60
2018-03-07T01:58:57.626Z,2.60
2018-03-07T02:01:24.463Z,2.60
2018-03-07T02:03:51.289Z,2.60
2018-03-07T02:06:18.129Z,2.50
2018-03-07T02:08:44.954Z,2.40
2018-03-07T02:11:12.542Z,2.40
2018-03-07T02:13:39.381Z,2.40
2018-03-07T02:16:06.224Z,2.40
2018-03-07T02:18:33.085Z,2.50
2018-03-07T02:20:59.903Z,2.40
2018-03-07T02:23:26.780Z,2.40
2018-03-07T02:25:53.614Z,2.50
2018-03-07T02:28:20.511Z,2.50
2018-03-07T02:30:47.505Z,2.40
2018-03-07T02:33:14.368Z,2.30
2018-03-07T02:35:41.939Z,2.40
2018-03-07T02:38:09.516Z,2.30
2018-03-07T02:40:36.361Z,2.30
2018-03-07T02:43:03.964Z,2.30
2018-03-07T02:45:30.803Z,2.30
2018-03-07T02:47:57.682Z,2.20
2018-03-07T02:50:25.260Z,2.30
2018-03-07T02:52:52.109Z,2.20
2018-03-07T02:55:19.687Z,2.20
2018-03-07T02:57:46.523Z,2.10
2018-03-07T03:00:13.380Z,2.20
2018-03-07T03:02:40.255Z,2.20
2018-03-07T03:05:07.091Z,2.20
2018-03-07T03:07:33.920Z,2.10
2018-03-07T03:10:00.768Z,2.20
2018-03-07T03:12:27.602Z,2.20
2018-03-07T03:14:54.433Z,2.20
2018-03-07T03:17:21.322Z,2.10
2018-03-07T03:19:48.178Z,2.10
2018-03-07T03:22:15.041Z,2.10
2018-03-07T03:24:41.907Z,2.10
2018-03-07T03:27:08.763Z,2.00
2018-03-07T03:29:35.620Z,1.90
2018-03-07T03:32:02.469Z,2.00
2018-03-07T03:34:29.320Z,2.00
2018-03-07T03:36:56.123Z,2.00
2018-03-07T03:39:22.969Z,2.00
2018-03-07T03:41:49.825Z,2.00
2018-03-07T03:44:16.663Z,1.90
2018-03-07T03:46:43.515Z,2.00
2018-03-07T03:49:10.387Z,2.00
2018-03-07T03:51:37.978Z,1.80
2018-03-07T03:54:04.811Z,1.80
2018-03-07T03:56:31.682Z,1.80
2018-03-07T03:58:59.294Z,1.80
2018-03-07T04:01:26.924Z,1.90
2018-03-07T04:03:53.771Z,1.90
2018-03-07T04:06:20.668Z,1.90
2018-03-07T04:08:47.496Z,1.80
2018-03-07T04:11:15.075Z,1.80
2018-03-07T04:13:41.933Z,1.80
2018-03-07T04:16:08.782Z,1.80
2018-03-07T04:18:35.619Z,1.70
2018-03-07T04:21:02.466Z,1.80
2018-03-07T04:23:29.342Z,1.80
2018-03-07T04:25:56.182Z,1.90
2018-03-07T04:28:23.783Z,1.80
2018-03-07T04:30:50.606Z,1.80
2018-03-07T04:33:18.189Z,1.70
2018-03-07T04:35:45.031Z,1.70
2018-03-07T04:38:12.615Z,1.50
2018-03-07T04:40:39.525Z,1.50
2018-03-07T04:43:06.346Z,1.50
2018-03-07T04:45:33.967Z,1.40
2018-03-07T04:48:00.822Z,1.40
2018-03-07T04:50:27.674Z,1.40
2018-03-07T04:52:54.522Z,1.40
2018-03-07T04:55:21.358Z,1.50
2018-03-07T04:57:48.226Z,1.40
2018-03-07T05:00:15.059Z,1.40
2018-03-07T05:02:41.925Z,1.40
2018-03-07T05:05:08.761Z,1.30
2018-03-07T05:07:36.336Z,1.40
2018-03-07T05:10:03.199Z,1.40
2018-03-07T05:12:30.066Z,1.50
2018-03-07T05:14:56.896Z,1.60
2018-03-07T05:17:23.722Z,1.50
2018-03-07T05:19:50.576Z,1.40
2018-03-07T05:22:18.170Z,1.30
2018-03-07T05:24:45.070Z,1.30
2018-03-07T05:27:11.947Z,1.20
2018-03-07T05:29:38.779Z,1.30
2018-03-07T05:32:05.993Z,1.20
2018-03-07T05:34:32.971Z,1.20
2018-03-07T05:37:00.076Z,1.20
2018-03-07T05:39:26.939Z,1.20
2018-03-07T05:41:54.118Z,1.30
2018-03-07T05:44:20.976Z,1.40
2018-03-07T05:46:48.232Z,1.50
2018-03-07T05:49:15.250Z,1.60
2018-03-07T05:51:43.441Z,1.70
2018-03-07T05:54:12.425Z,1.70
2018-03-07T05:56:40.711Z,1.70
2018-03-07T05:59:07.670Z,1.60
2018-03-07T06:01:37.591Z,1.70
2018-03-07T06:04:05.116Z,1.70
2018-03-07T06:06:32.155Z,1.80
2018-03-07T06:08:59.188Z,1.80
2018-03-07T06:11:26.971Z,1.90
2018-03-07T06:13:54.066Z,1.90
2018-03-07T06:16:21.193Z,2.00
2018-03-07T06:18:48.991Z,2.00
2018-03-07T06:21:15.981Z,2.00
2018-03-07T06:23:43.224Z,1.90
2018-03-07T06:26:10.218Z,1.90
2018-03-07T06:28:37.082Z,2.00
2018-03-07T06:31:03.930Z,2.10
2018-03-07T06:33:31.522Z,2.20
2018-03-07T06:35:58.367Z,2.20
2018-03-07T06:38:26.198Z,2.40
2018-03-07T06:40:53.524Z,2.40
2018-03-07T06:43:20.781Z,2.40
2018-03-07T06:45:47.875Z,2.50
2018-03-07T06:48:14.796Z,2.60
2018-03-07T06:50:41.962Z,2.70
2018-03-07T06:53:09.716Z,2.80
2018-03-07T06:55:37.621Z,2.80
2018-03-07T06:58:04.579Z,2.80
2018-03-07T07:00:31.699Z,2.90
2018-03-07T07:02:58.655Z,2.90
2018-03-07T07:05:25.634Z,3.00
2018-03-07T07:07:52.896Z,3.00
2018-03-07T07:10:19.899Z,3.00
2018-03-07T07:12:47.019Z,2.80
2018-03-07T07:15:14.791Z,2.80
2018-03-07T07:17:42.466Z,3.00
2018-03-07T07:20:09.565Z,3.00
2018-03-07T07:22:37.218Z,3.00
2018-03-07T07:25:04.184Z,3.00
2018-03-07T07:27:31.281Z,2.90
2018-03-07T07:29:58.982Z,2.90
2018-03-07T07:32:26.021Z,2.80
2018-03-07T07:34:52.884Z,2.90
2018-03-07T07:37:20.741Z,3.20
2018-03-07T07:39:47.737Z,3.20
2018-03-07T07:42:14.676Z,3.30
2018-03-07T07:44:42.694Z,3.40
2018-03-07T07:47:09.814Z,3.50
2018-03-07T07:49:36.930Z,3.60
2018-03-07T07:52:04.026Z,3.70
2018-03-07T07:54:31.020Z,3.70
2018-03-07T07:56:58.062Z,3.70
2018-03-07T07:59:25.152Z,3.90
2018-03-07T08:01:52.021Z,4.00
2018-03-07T08:04:19.090Z,4.10
2018-03-07T08:06:46.006Z,4.20
2018-03-07T08:09:12.978Z,4.30
2018-03-07T08:11:39.920Z,4.40
2018-03-07T08:14:06.787Z,4.70
2018-03-07T08:16:33.671Z,4.80
2018-03-07T08:19:00.511Z,4.80
2018-03-07T08:21:27.350Z,4.80
2018-03-07T08:23:54.202Z,4.80
2018-03-07T08:26:21.074Z,4.90
2018-03-07T08:28:47.983Z,4.90
2018-03-07T08:31:14.835Z,5.00
2018-03-07T08:33:41.680Z,5.10
2018-03-07T08:36:08.816Z,5.20
2018-03-07T08:38:35.837Z,5.40
2018-03-07T08:41:02.888Z,5.40
2018-03-07T08:43:29.848Z,5.50
2018-03-07T08:45:56.795Z,5.60
2018-03-07T08:48:23.707Z,5.70
2018-03-07T08:50:51.297Z,5.90
2018-03-07T08:53:18.884Z,5.90
2018-03-07T08:55:45.742Z,5.90
2018-03-07T08:58:12.563Z,6.00
2018-03-07T09:00:39.443Z,6.10
2018-03-07T09:03:06.299Z,6.20
2018-03-07T09:05:33.884Z,6.40
2018-03-07T09:08:00.738Z,6.30
2018-03-07T09:10:27.631Z,6.50
2018-03-07T09:12:55.242Z,7.20
2018-03-07T09:15:22.078Z,7.10
2018-03-07T09:17:48.950Z,7.20
2018-03-07T09:20:15.811Z,7.40
2018-03-07T09:22:42.665Z,7.50
2018-03-07T09:25:09.522Z,7.80
2018-03-07T09:27:37.136Z,8.10
2018-03-07T09:30:04.044Z,8.10
2018-03-07T09:32:31.615Z,8.40
2018-03-07T09:34:58.441Z,8.40
2018-03-07T09:37:26.040Z,8.60
2018-03-07T09:39:52.930Z,8.60
2018-03-07T09:42:20.522Z,8.90
2018-03-07T09:44:47.380Z,8.90
2018-03-07T09:47:14.267Z,8.80
2018-03-07T09:49:41.111Z,8.80
2018-03-07T09:52:07.955Z,8.90
2018-03-07T09:54:34.843Z,8.90
2018-03-07T09:57:01.696Z,9.00
2018-03-07T09:59:28.595Z,9.10
2018-03-07T10:01:56.196Z,9.20
2018-03-07T10:04:23.074Z,9.20
2018-03-07T10:06:49.906Z,9.20
2018-03-07T10:09:16.783Z,9.20
2018-03-07T10:11:44.376Z,9.50
2018-03-07T10:14:11.207Z,9.50
2018-03-07T10:16:38.134Z,9.40
2018-03-07T10:19:04.947Z,9.40
2018-03-07T10:21:31.779Z,9.30
2018-03-07T10:23:58.651Z,9.50
2018-03-07T10:26:25.474Z,9.50
2018-03-07T10:28:52.311Z,9.20
2018-03-07T10:31:19.192Z,9.10
2018-03-07T10:33:46.813Z,9.20
2018-03-07T10:36:13.698Z,9.10
2018-03-07T10:38:41.286Z,9.40
2018-03-07T10:41:08.137Z,9.40
2018-03-07T10:43:35.042Z,9.20
2018-03-07T10:46:01.917Z,9.20
2018-03-07T10:48:28.763Z,9.10
2018-03-07T10:50:55.639Z,9.30
2018-03-07T10:53:22.462Z,9.20
2018-03-07T10:55:49.302Z,9.50
2018-03-07T10:58:16.163Z,9.70
2018-03-07T11:00:43.032Z,9.80
2018-03-07T11:03:09.850Z,9.70
2018-03-07T11:05:36.707Z,9.80
2018-03-07T11:08:03.585Z,9.80
2018-03-07T11:10:30.402Z,9.90
2018-03-07T11:12:58.013Z,9.80
2018-03-07T11:15:24.859Z,9.80
2018-03-07T11:17:51.678Z,10.00
2018-03-07T11:20:18.589Z,10.00
2018-03-07T11:22:45.422Z,10.10
2018-03-07T11:25:12.275Z,10.30
2018-03-07T11:27:39.112Z,10.60
2018-03-07T11:30:05.951Z,10.90
2018-03-07T11:32:32.810Z,11.50
2018-03-07T11:34:59.635Z,12.30
2018-03-07T11:37:26.466Z,13.70
2018-03-07T11:39:53.327Z,13.90
2018-03-07T11:42:20.135Z,13.90
2018-03-07T11:44:47.009Z,13.30
2018-03-07T11:47:14.616Z,12.30
2018-03-07T11:49:41.464Z,12.20
2018-03-07T11:52:08.355Z,12.00
2018-03-07T11:54:35.182Z,12.00
2018-03-07T11:57:02.051Z,12.00
2018-03-07T11:59:28.884Z,12.10
2018-03-07T12:01:55.722Z,11.90
2018-03-07T12:04:22.574Z,11.50
2018-03-07T12:06:49.415Z,11.40
2018-03-07T12:09:16.270Z,11.40
2018-03-07T12:11:43.157Z,11.40
2018-03-07T12:14:10.017Z,11.40
2018-03-07T12:16:36.855Z,11.70
2018-03-07T12:19:03.767Z,12.10
2018-03-07T12:21:31.339Z,12.80
2018-03-07T12:23:58.180Z,12.70
2018-03-07T12:26:25.032Z,13.20
2018-03-07T12:28:51.890Z,13.30
2018-03-07T12:31:18.716Z,13.70
2018-03-07T12:33:45.583Z,13.80
2018-03-07T12:36:12.435Z,13.60
2018-03-07T12:38:39.295Z,13.30
2018-03-07T12:41:06.122Z,13.00
2018-03-07T12:43:32.963Z,12.60
2018-03-07T12:45:59.794Z,12.40
2018-03-07T12:48:26.650Z,12.30
2018-03-07T12:50:53.519Z,12.00
2018-03-07T12:53:21.109Z,11.90
2018-03-07T12:55:47.991Z,11.90
2018-03-07T12:58:14.814Z,12.10
2018-03-07T13:00:41.647Z,12.30
2018-03-07T13:03:08.504Z,12.30
2018-03-07T13:05:35.611Z,12.40
2018-03-07T13:08:02.487Z,12.50
2018-03-07T13:10:29.342Z,12.40
2018-03-07T13:12:56.191Z,12.60
2018-03-07T13:15:23.028Z,14.60
2018-03-07T13:17:49.887Z,15.70
2018-03-07T13:20:16.734Z,15.30
2018-03-07T13:22:43.555Z,15.30
2018-03-07T13:25:10.409Z,16.50
2018-03-07T13:27:37.238Z,16.80
2018-03-07T13:30:04.091Z,16.30
2018-03-07T13:32:31.000Z,18.70
2018-03-07T13:34:57.814Z,22.20
2018-03-07T13:37:24.631Z,24.20
2018-03-07T13:39:51.494Z,25.00
2018-03-07T13:42:18.320Z,25.80
2018-03-07T13:44:45.163Z,26.10
2018-03-07T13:47:12.010Z,26.20
2018-03-07T13:49:38.901Z,24.70
2018-03-07T13:52:05.735Z,22.10
2018-03-07T13:54:32.587Z,19.60
2018-03-07T13:56:59.438Z,17.90
2018-03-07T13:59:26.299Z,17.00
2018-03-07T14:01:53.135Z,16.40
2018-03-07T14:04:20.016Z,15.40
2018-03-07T14:06:47.592Z,13.90
2018-03-07T14:09:15.189Z,13.40
2018-03-07T14:11:42.053Z,13.40
2018-03-07T14:14:08.855Z,12.90
2018-03-07T14:16:35.678Z,12.80
2018-03-07T14:19:02.515Z,14.40
2018-03-07T14:21:30.087Z,16.70
2018-03-07T14:23:56.894Z,16.60
2018-03-07T14:26:23.779Z,16.00
2018-03-07T14:28:50.649Z,15.20
2018-03-07T14:31:17.443Z,15.00
2018-03-07T14:33:44.298Z,14.80
2018-03-07T14:36:11.875Z,14.30
2018-03-07T14:38:39.451Z,13.90
2018-03-07T14:41:06.324Z,13.80
2018-03-07T14:43:33.147Z,13.30
2018-03-07T14:45:59.976Z,13.00
2018-03-07T14:48:26.866Z,12.70
2018-03-07T14:50:53.727Z,12.50
2018-03-07T14:53:21.303Z,12.30
2018-03-07T14:55:48.180Z,12.20
2018-03-07T14:58:15.027Z,11.90
2018-03-07T15:00:41.889Z,11.80
2018-03-07T15:03:08.751Z,11.70
2018-03-07T15:05:35.628Z,11.80
2018-03-07T15:08:02.515Z,11.70
2018-03-07T15:10:29.372Z,11.60
2018-03-07T15:12:56.204Z,11.60
2018-03-07T15:15:23.083Z,11.60
2018-03-07T15:17:50.667Z,11.40
2018-03-07T15:20:17.506Z,11.40
2018-03-07T15:22:44.363Z,11.30
2018-03-07T15:25:11.973Z,11.00
2018-03-07T15:27:39.573Z,10.80
2018-03-07T15:30:06.639Z,10.80
2018-03-07T15:32:33.561Z,10.70
2018-03-07T15:35:01.179Z,10.30
2018-03-07T15:37:28.014Z,10.30
2018-03-07T15:39:54.864Z,10.20
2018-03-07T15:42:21.739Z,10.10
2018-03-07T15:44:48.586Z,10.00
2018-03-07T15:47:15.443Z,9.90
2018-03-07T15:49:42.288Z,9.80
2018-03-07T15:52:09.326Z,9.70
2018-03-07T15:54:36.451Z,9.60
2018-03-07T15:57:04.140Z,9.40
2018-03-07T15:59:30.982Z,9.40
2018-03-07T16:01:57.847Z,9.30
2018-03-07T16:04:24.679Z,9.20
2018-03-07T16:06:51.504Z,9.10
2018-03-07T16:09:18.404Z,8.90
2018-03-07T16:11:45.271Z,8.80
2018-03-07T16:14:12.096Z,8.70
2018-03-07T16:16:38.988Z,8.60
2018-03-07T16:19:05.838Z,8.50
2018-03-07T16:21:32.650Z,8.30
2018-03-07T16:23:59.523Z,8.30
2018-03-07T16:26:26.344Z,8.20
2018-03-07T16:28:53.914Z,8.10
2018-03-07T16:31:20.790Z,8.10
2018-03-07T16:33:47.671Z,8.00
2018-03-07T16:36:15.259Z,7.70
2018-03-07T16:38:42.147Z,7.70
2018-03-07T16:41:08.979Z,7.50
2018-03-07T16:43:35.815Z,7.40
2018-03-07T16:46:02.694Z,7.20
2018-03-07T16:48:30.298Z,7.00
2018-03-07T16:50:57.138Z,6.90
2018-03-07T16:53:23.995Z,6.80
2018-03-07T16:55:50.820Z,6.70
2018-03-07T16:58:18.374Z,6.50
2018-03-07T17:00:45.230Z,6.50
2018-03-07T17:03:12.115Z,6.50
2018-03-07T17:05:38.982Z,6.40
2018-03-07T17:08:05.855Z,6.40
2018-03-07T17:10:32.693Z,6.30
2018-03-07T17:12:59.523Z,6.20
2018-03-07T17:15:27.119Z,6.10
2018-03-07T17:17:53.951Z,6.00
2018-03-07T17:20:20.798Z,6.00
2018-03-07T17:22:48.294Z,5.80
2018-03-07T17:25:15.166Z,5.80
2018-03-07T17:27:42.754Z,5.70
2018-03-07T17:30:09.566Z,5.60
2018-03-07T17:32:37.175Z,5.50
2018-03-07T17:35:04.046Z,5.50
2018-03-07T17:37:30.879Z,5.50
2018-03-07T17:39:57.743Z,5.40
2018-03-07T17:42:25.356Z,5.30
2018-03-07T17:44:52.222Z,5.30
2018-03-07T17:47:19.125Z,5.30
2018-03-07T17:49:47.708Z,5.20
2018-03-07T17:52:14.596Z,5.20
2018-03-07T17:54:41.451Z,5.10
2018-03-07T17:57:08.324Z,5.10
2018-03-07T17:59:35.180Z,5.10
2018-03-07T18:02:02.067Z,5.10
2018-03-07T18:04:28.911Z,5.10
2018-03-07T18:06:55.758Z,5.10
2018-03-07T18:09:22.606Z,5.10
2018-03-07T18:11:49.449Z,5.10
2018-03-07T18:14:16.319Z,5.00
2018-03-07T18:16:43.943Z,5.00
2018-03-07T18:19:10.782Z,5.00
2018-03-07T18:21:37.642Z,5.10
2018-03-07T18:24:04.570Z,5.10
2018-03-07T18:26:31.451Z,5.10
2018-03-07T18:28:58.282Z,5.10
2018-03-07T18:31:25.119Z,5.10
2018-03-07T18:33:51.966Z,5.00
2018-03-07T18:36:19.547Z,4.90
2018-03-07T18:38:46.398Z,4.90
2018-03-07T18:41:14.010Z,4.80
2018-03-07T18:43:40.859Z,4.70
2018-03-07T18:46:08.394Z,4.80
2018-03-07T18:48:35.246Z,4.80
2018-03-07T18:51:02.146Z,4.80
2018-03-07T18:53:30.342Z,4.80
2018-03-07T18:55:58.110Z,4.80
2018-03-07T18:58:24.974Z,4.80
2018-03-07T19:00:51.859Z,4.90
2018-03-07T19:03:19.444Z,5.00
2018-03-07T19:05:46.280Z,5.00
2018-03-07T19:08:13.164Z,5.00
2018-03-07T19:10:40.011Z,5.00
2018-03-07T19:13:06.823Z,4.90
2018-03-07T19:15:33.710Z,4.90
2018-03-07T19:18:00.538Z,4.80
2018-03-07T19:20:27.359Z,4.80
2018-03-07T19:22:54.215Z,4.70
2018-03-07T19:25:21.687Z,4.80
2018-03-07T19:27:48.567Z,4.80
2018-03-07T19:30:16.159Z,4.60
2018-03-07T19:32:43.010Z,4.60
2018-03-07T19:35:10.005Z,4.50
2018-03-07T19:37:37.875Z,4.50
2018-03-07T19:40:04.812Z,4.40
2018-03-07T19:42:31.643Z,4.40
2018-03-07T19:44:58.511Z,4.40
2018-03-07T19:47:26.123Z,4.50
2018-03-07T19:49:52.987Z,4.50
2018-03-07T19:52:20.155Z,4.60
2018-03-07T19:54:47.291Z,4.50
2018-03-07T19:57:14.272Z,4.50
2018-03-07T19:59:41.858Z,4.50
2018-03-07T20:02:09.530Z,4.50
2018-03-07T20:04:36.372Z,4.50
2018-03-07T20:07:03.281Z,4.40
2018-03-07T20:09:30.866Z,4.30
2018-03-07T20:11:57.731Z,4.30
2018-03-07T20:14:24.582Z,4.30
2018-03-07T20:16:51.414Z,4.20
2018-03-07T20:19:18.297Z,4.10
2018-03-07T20:21:45.875Z,4.00
2018-03-07T20:24:12.790Z,4.00
2018-03-07T20:26:39.655Z,4.00
2018-03-07T20:29:07.238Z,4.00
2018-03-07T20:31:34.107Z,4.00
2018-03-07T20:34:00.983Z,3.90
2018-03-07T20:36:27.799Z,3.90
2018-03-07T20:38:54.670Z,3.90
2018-03-07T20:41:22.275Z,3.80
2018-03-07T20:43:49.127Z,3.80
2018-03-07T20:46:15.988Z,3.80
2018-03-07T20:48:42.862Z,3.80
2018-03-07T20:51:10.483Z,3.70
2018-03-07T20:53:37.320Z,3.70
2018-03-07T20:56:04.272Z,3.70
2018-03-07T20:58:46.054Z,3.70
2018-03-07T21:01:12.900Z,3.60
2018-03-07T21:03:39.746Z,3.60
2018-03-07T21:06:06.621Z,3.70
2018-03-07T21:08:33.466Z,3.70
2018-03-07T21:11:00.283Z,3.80
2018-03-07T21:13:27.140Z,3.70
2018-03-07T21:15:53.959Z,3.70
2018-03-07T21:18:20.848Z,3.70
2018-03-07T21:20:47.683Z,3.70
2018-03-07T21:23:15.292Z,3.80
2018-03-07T21:25:42.142Z,3.80
2018-03-07T21:28:08.990Z,3.90
2018-03-07T21:30:35.844Z,4.00
2018-03-07T21:33:02.698Z,4.00
2018-03-07T21:35:29.535Z,3.90
2018-03-07T21:37:56.374Z,3.90
2018-03-07T21:40:23.210Z,4.00
2018-03-07T21:42:50.043Z,4.00
2018-03-07T21:45:16.884Z,4.10
2018-03-07T21:47:43.723Z,4.10
2018-03-07T21:50:10.690Z,4.10
2018-03-07T21:52:37.558Z,4.00
2018-03-07T21:55:04.415Z,4.00
2018-03-07T21:57:31.988Z,4.10
2018-03-07T21:59:58.825Z,4.00
2018-03-07T22:02:26.471Z,4.10
2018-03-07T22:04:53.342Z,4.00
2018-03-07T22:07:20.174Z,4.00
2018-03-07T22:09:47.971Z,4.10
2018-03-07T22:12:14.875Z,4.10
2018-03-07T22:14:42.483Z,4.10
2018-03-07T22:17:09.342Z,4.00
2018-03-07T22:19:36.198Z,4.10
2018-03-07T22:22:03.064Z,4.20
2018-03-07T22:24:30.706Z,4.20
2018-03-07T22:26:57.507Z,4.20
2018-03-07T22:29:24.339Z,4.10
2018-03-07T22:31:51.205Z,4.10
2018-03-07T22:34:18.034Z,4.20
2018-03-07T22:36:44.838Z,4.20
2018-03-07T22:39:12.443Z,4.20
2018-03-07T22:41:39.291Z,4.20
2018-03-07T22:44:06.119Z,4.20
2018-03-07T22:46:32.966Z,4.30
2018-03-07T22:48:59.810Z,4.30
2018-03-07T22:51:26.619Z,4.40
2018-03-07T22:53:54.267Z,4.60
2018-03-07T22:56:21.074Z,4.60
2018-03-07T22:58:47.921Z,4.70
2018-03-07T23:01:14.772Z,4.80
2018-03-07T23:03:41.608Z,4.80
2018-03-07T23:08:42.417Z,4.90
2018-03-07T23:11:09.252Z,5.00
2018-03-07T23:13:36.073Z,4.90
2018-03-07T23:16:03.683Z,5.00
2018-03-07T23:18:30.522Z,5.00
2018-03-07T23:20:57.395Z,5.10
2018-03-07T23:23:24.231Z,5.10
2018-03-07T23:25:51.071Z,5.20
2018-03-07T23:28:17.905Z,5.20
2018-03-07T23:30:44.726Z,5.30
2018-03-07T23:33:11.559Z,5.40
2018-03-07T23:35:38.436Z,5.50
2018-03-07T23:38:05.252Z,5.50
2018-03-07T23:40:32.099Z,5.60
2018-03-07T23:42:58.994Z,5.70
2018-03-07T23:45:25.815Z,5.70
2018-03-07T23:47:52.659Z,5.70
2018-03-07T23:50:19.527Z,5.80
2018-03-07T23:52:46.348Z,5.80
2018-03-07T23:55:13.193Z,5.90
2018-03-07T23:57:40.059Z,5.90
